createdAt,value
2018-11-28T00:01:08.239Z,2.37
2018-11-28T00:03:40.659Z,2.77
2018-11-28T00:06:13.444Z,2.40
2018-11-28T00:08:45.792Z,2.77
2018-11-28T00:11:17.584Z,2.70
2018-11-28T00:20:04.078Z,3.00
2018-11-28T00:22:37.806Z,3.07
2018-11-28T00:25:12.923Z,2.83
2018-11-28T00:27:44.776Z,2.63
2018-11-28T00:30:25.455Z,2.73
2018-11-28T00:32:59.212Z,2.40
2018-11-28T00:35:30.294Z,2.50
2018-11-28T00:38:02.429Z,2.97
2018-11-28T00:40:35.229Z,3.23
2018-11-28T00:43:08.625Z,2.90
2018-11-28T00:45:42.734Z,2.50
2018-11-28T00:48:13.741Z,2.87
2018-11-28T00:50:45.807Z,2.37
2018-11-28T00:53:18.148Z,2.50
2018-11-28T00:55:49.337Z,2.43
2018-11-28T00:58:22.653Z,2.80
2018-11-28T01:00:53.488Z,2.83
2018-11-28T01:03:24.287Z,2.40
2018-11-28T01:05:55.831Z,3.07
2018-11-28T01:08:28.684Z,2.90
2018-11-28T01:11:02.586Z,2.80
2018-11-28T01:13:34.440Z,2.50
2018-11-28T01:16:06.006Z,2.90
2018-11-28T01:18:38.554Z,2.93
2018-11-28T01:21:10.937Z,2.80
2018-11-28T01:23:43.237Z,3.33
2018-11-28T01:26:14.387Z,2.97
2018-11-28T01:28:46.952Z,2.30
2018-11-28T01:31:18.450Z,2.97
2018-11-28T01:33:50.393Z,2.43
2018-11-28T01:36:21.541Z,2.47
2018-11-28T01:38:54.252Z,2.47
2018-11-28T01:41:25.419Z,2.27
2018-11-28T01:43:56.459Z,2.87
2018-11-28T01:46:28.926Z,2.63
2018-11-28T01:48:59.980Z,2.40
2018-11-28T01:51:34.121Z,2.93
2018-11-28T01:54:07.650Z,2.20
2018-11-28T01:56:38.529Z,2.07
2018-11-28T01:59:10.612Z,2.57
2018-11-28T02:01:42.595Z,2.33
2018-11-28T02:04:13.403Z,2.57
2018-11-28T02:06:46.942Z,2.57
2018-11-28T02:09:19.132Z,3.10
2018-11-28T02:11:51.033Z,2.20
2018-11-28T02:14:25.767Z,1.83
2018-11-28T02:16:59.323Z,1.97
2018-11-28T02:28:51.632Z,1.80
2018-11-28T02:31:22.735Z,1.70
2018-11-28T02:33:54.904Z,1.63
2018-11-28T02:36:27.777Z,1.77
2018-11-28T02:38:59.257Z,2.07
2018-11-28T02:41:31.477Z,1.83
2018-11-28T02:44:04.532Z,1.73
2018-11-28T02:46:35.881Z,1.37
2018-11-28T02:49:13.746Z,2.30
2018-11-28T02:51:44.857Z,1.27
2018-11-28T02:54:17.319Z,1.83
2018-11-28T02:56:48.193Z,1.77
2018-11-28T02:59:19.819Z,1.90
2018-11-28T03:01:50.783Z,1.80
2018-11-28T03:04:21.922Z,1.30
2018-11-28T03:06:53.148Z,1.23
2018-11-28T03:09:26.139Z,1.30
2018-11-28T03:12:01.497Z,1.20
2018-11-28T03:14:33.983Z,1.20
2018-11-28T03:17:05.163Z,1.13
2018-11-28T03:19:36.342Z,0.70
2018-11-28T03:22:07.883Z,0.60
2018-11-28T03:24:38.888Z,0.90
2018-11-28T03:27:11.032Z,0.60
2018-11-28T03:29:43.420Z,0.90
2018-11-28T03:32:17.873Z,0.67
2018-11-28T03:34:48.759Z,0.30
2018-11-28T03:37:19.958Z,0.67
2018-11-28T03:39:52.438Z,0.70
2018-11-28T03:42:24.626Z,0.63
2018-11-28T03:44:55.300Z,0.67
2018-11-28T03:47:26.337Z,0.50
2018-11-28T03:49:59.614Z,0.80
2018-11-28T03:52:32.583Z,1.17
2018-11-28T03:55:06.395Z,0.70
2018-11-28T03:57:37.202Z,0.87
2018-11-28T04:00:28.709Z,0.67
2018-11-28T04:03:01.312Z,0.73
2018-11-28T04:05:33.810Z,0.80
2018-11-28T04:08:04.725Z,0.50
2018-11-28T04:10:35.702Z,0.40
2018-11-28T04:13:08.817Z,0.43
2018-11-28T04:15:40.885Z,0.50
2018-11-28T04:18:14.616Z,0.60
2018-11-28T04:20:47.283Z,0.30
2018-11-28T04:23:19.892Z,0.40
2018-11-28T04:25:50.955Z,0.80
2018-11-28T04:28:24.915Z,0.50
2018-11-28T04:30:57.314Z,0.93
2018-11-28T04:33:29.319Z,0.40
2018-11-28T04:36:00.563Z,0.57
2018-11-28T04:38:31.623Z,0.53
2018-11-28T04:41:02.398Z,0.40
2018-11-28T04:43:33.251Z,0.53
2018-11-28T04:46:04.191Z,0.90
2018-11-28T04:48:35.179Z,0.63
2018-11-28T04:51:06.361Z,0.60
2018-11-28T04:53:37.582Z,0.67
2018-11-28T04:56:08.011Z,0.40
2018-11-28T04:58:38.809Z,0.60
2018-11-28T05:01:12.506Z,0.43
2018-11-28T05:03:45.548Z,0.50
2018-11-28T05:07:29.269Z,0.60
2018-11-28T05:10:01.837Z,0.50
2018-11-28T05:12:32.926Z,0.70
2018-11-28T05:15:06.810Z,0.30
2018-11-28T05:17:39.179Z,0.73
2018-11-28T05:20:17.661Z,0.63
2018-11-28T05:22:49.790Z,0.70
2018-11-28T05:25:24.127Z,0.70
2018-11-28T05:27:59.033Z,1.00
2018-11-28T05:30:33.229Z,0.60
2018-11-28T05:33:05.368Z,0.80
2018-11-28T05:35:41.867Z,0.80
2018-11-28T05:38:17.384Z,0.73
2018-11-28T05:40:49.983Z,0.80
2018-11-28T05:43:25.150Z,0.90
2018-11-28T05:45:55.982Z,0.90
2018-11-28T05:48:28.344Z,0.97
2018-11-28T05:51:00.002Z,0.83
2018-11-28T05:53:32.287Z,0.73
2018-11-28T05:56:03.978Z,0.53
2018-11-28T05:58:35.957Z,0.50
2018-11-28T06:01:06.962Z,1.23
2018-11-28T06:03:37.661Z,0.63
2018-11-28T06:06:08.670Z,0.83
2018-11-28T06:08:40.287Z,0.97
2018-11-28T06:11:10.991Z,0.70
2018-11-28T06:13:41.752Z,0.70
2018-11-28T06:16:12.821Z,1.10
2018-11-28T06:18:45.890Z,0.80
2018-11-28T06:21:20.436Z,0.57
2018-11-28T06:23:53.401Z,0.60
2018-11-28T06:26:25.502Z,0.90
2018-11-28T06:28:59.854Z,0.60
2018-11-28T06:31:31.260Z,0.90
2018-11-28T06:34:02.518Z,0.57
2018-11-28T06:36:36.316Z,0.73
2018-11-28T06:39:09.753Z,0.70
2018-11-28T06:41:41.784Z,0.67
2018-11-28T06:44:14.839Z,1.47
2018-11-28T06:46:45.617Z,1.00
2018-11-28T06:49:16.382Z,0.73
2018-11-28T06:51:47.796Z,0.67
2018-11-28T06:54:18.696Z,0.77
2018-11-28T06:56:49.424Z,1.20
2018-11-28T06:59:20.406Z,0.90
2018-11-28T07:01:51.319Z,0.80
2018-11-28T07:04:22.339Z,0.90
2018-11-28T07:06:53.105Z,0.53
2018-11-28T07:09:23.868Z,1.23
2018-11-28T07:11:54.549Z,1.03
2018-11-28T07:14:25.659Z,1.17
2018-11-28T07:16:56.472Z,1.10
2018-11-28T07:19:27.565Z,1.00
2018-11-28T07:21:59.431Z,1.57
2018-11-28T07:24:30.106Z,1.63
2018-11-28T07:27:01.461Z,1.63
2018-11-28T07:29:32.806Z,2.00
2018-11-28T07:32:03.947Z,1.53
2018-11-28T07:34:35.528Z,1.00
2018-11-28T07:37:06.988Z,1.00
2018-11-28T07:39:38.014Z,1.93
2018-11-28T07:42:09.298Z,1.13
2018-11-28T07:44:40.978Z,0.97
2018-11-28T07:47:11.167Z,1.13
2018-11-28T07:49:41.990Z,1.33
2018-11-28T07:52:13.282Z,1.60
2018-11-28T07:54:44.606Z,1.47
2018-11-28T07:57:15.301Z,1.17
2018-11-28T07:59:46.251Z,1.33
2018-11-28T08:02:17.216Z,1.10
2018-11-28T08:04:47.982Z,1.10
2018-11-28T08:07:19.794Z,1.33
2018-11-28T08:09:50.551Z,1.57
2018-11-28T08:12:21.514Z,1.77
2018-11-28T08:14:52.162Z,1.87
2018-11-28T08:17:36.298Z,1.73
2018-11-28T08:20:06.393Z,1.10
2018-11-28T08:22:37.635Z,1.00
2018-11-28T08:25:10.554Z,1.97
2018-11-28T08:27:42.009Z,1.60
2018-11-28T08:30:16.667Z,1.40
2018-11-28T08:35:54.572Z,1.50
2018-11-28T08:38:25.163Z,1.53
2018-11-28T08:40:55.849Z,1.50
2018-11-28T08:43:26.566Z,1.40
2018-11-28T08:45:57.542Z,1.50
2018-11-28T08:48:29.298Z,1.60
2018-11-28T08:51:00.535Z,2.57
2018-11-28T08:53:31.521Z,2.03
2018-11-28T08:56:03.036Z,1.23
2018-11-28T08:58:34.000Z,1.67
2018-11-28T09:01:04.794Z,1.80
2018-11-28T09:03:36.806Z,2.03
2018-11-28T09:06:09.135Z,2.33
2018-11-28T09:08:40.178Z,2.27
2018-11-28T09:11:11.636Z,2.00
2018-11-28T09:13:42.346Z,1.83
2018-11-28T09:16:12.826Z,2.30
2018-11-28T09:18:43.732Z,2.47
2018-11-28T09:21:14.460Z,2.30
2018-11-28T09:23:46.007Z,2.03
2018-11-28T09:26:19.897Z,1.70
2018-11-28T09:28:50.933Z,2.23
2018-11-28T09:31:22.023Z,2.20
2018-11-28T09:33:52.736Z,2.23
2018-11-28T09:36:23.256Z,5.13
2018-11-28T09:38:53.904Z,2.77
2018-11-28T09:41:24.963Z,2.30
2018-11-28T09:43:55.757Z,2.33
2018-11-28T09:46:26.526Z,2.40
2018-11-28T09:48:57.386Z,2.20
2018-11-28T09:51:28.344Z,2.37
2018-11-28T09:53:59.335Z,2.27
2018-11-28T09:56:30.494Z,2.20
2018-11-28T09:59:01.483Z,2.07
2018-11-28T10:01:32.351Z,2.30
2018-11-28T10:04:03.303Z,2.70
2018-11-28T10:06:34.212Z,2.67
2018-11-28T10:09:06.464Z,2.40
2018-11-28T10:11:37.181Z,2.30
2018-11-28T10:14:08.480Z,3.47
2018-11-28T10:16:39.355Z,2.87
2018-11-28T10:19:10.318Z,2.50
2018-11-28T10:21:41.467Z,3.00
2018-11-28T10:24:12.950Z,3.77
2018-11-28T10:26:44.049Z,1.77
2018-11-28T10:29:14.702Z,2.27
2018-11-28T10:31:46.919Z,2.20
2018-11-28T10:34:18.028Z,2.77
2018-11-28T10:36:48.793Z,2.33
2018-11-28T10:39:19.579Z,2.37
2018-11-28T10:41:50.481Z,2.87
2018-11-28T10:44:21.539Z,2.50
2018-11-28T10:46:52.198Z,1.87
2018-11-28T10:49:22.801Z,2.57
2018-11-28T10:51:54.147Z,2.80
2018-11-28T10:54:24.638Z,2.60
2018-11-28T10:56:55.843Z,3.10
2018-11-28T10:59:26.978Z,2.80
2018-11-28T11:02:03.001Z,2.33
2018-11-28T11:04:38.883Z,3.03
2018-11-28T11:07:17.070Z,3.10
2018-11-28T11:09:52.806Z,2.70
2018-11-28T11:12:28.836Z,3.17
2018-11-28T11:14:59.909Z,4.33
2018-11-28T11:17:30.999Z,4.60
2018-11-28T11:20:02.620Z,4.40
2018-11-28T11:22:33.442Z,3.50
2018-11-28T11:25:04.590Z,3.07
2018-11-28T11:27:35.787Z,2.80
2018-11-28T11:30:09.283Z,3.70
2018-11-28T11:37:31.992Z,3.60
2018-11-28T11:40:04.127Z,3.30
2018-11-28T11:42:35.093Z,3.40
2018-11-28T11:45:07.528Z,3.20
2018-11-28T11:47:44.935Z,3.60
2018-11-28T11:50:17.362Z,3.70
2018-11-28T11:52:48.309Z,3.53
2018-11-28T11:55:20.389Z,3.63
2018-11-28T11:57:51.603Z,4.30
2018-11-28T12:00:24.997Z,4.00
2018-11-28T12:03:12.473Z,4.07
2018-11-28T12:05:57.886Z,3.90
2018-11-28T12:08:30.073Z,3.83
2018-11-28T12:11:01.764Z,3.00
2018-11-28T12:13:32.837Z,3.50
2018-11-28T12:16:04.094Z,4.63
2018-11-28T12:18:34.940Z,4.57
2018-11-28T12:21:07.439Z,3.90
2018-11-28T12:23:38.337Z,4.03
2018-11-28T12:26:09.155Z,4.20
2018-11-28T12:28:39.838Z,3.60
2018-11-28T12:31:11.976Z,3.83
2018-11-28T12:33:44.542Z,4.20
2018-11-28T12:36:15.333Z,4.10
2018-11-28T12:38:46.419Z,4.37
2018-11-28T12:41:18.131Z,3.87
2018-11-28T12:43:52.027Z,3.97
2018-11-28T12:46:23.818Z,3.63
2018-11-28T12:48:54.594Z,4.23
2018-11-28T12:51:25.715Z,4.60
2018-11-28T12:53:56.400Z,4.17
2018-11-28T12:56:27.059Z,3.90
2018-11-28T12:58:58.216Z,4.37
2018-11-28T13:01:29.187Z,3.80
2018-11-28T13:04:00.006Z,4.27
2018-11-28T13:06:30.840Z,3.63
2018-11-28T13:09:01.557Z,4.40
2018-11-28T13:11:32.462Z,4.40
2018-11-28T13:14:03.079Z,4.87
2018-11-28T13:16:34.235Z,4.10
2018-11-28T13:19:05.049Z,4.40
2018-11-28T13:21:36.075Z,4.30
2018-11-28T13:24:07.306Z,4.77
2018-11-28T13:26:38.366Z,4.73
2018-11-28T13:29:09.310Z,4.60
2018-11-28T13:31:41.518Z,4.03
2018-11-28T13:34:12.614Z,4.13
2018-11-28T13:39:51.686Z,3.90
2018-11-28T13:42:22.362Z,4.30
2018-11-28T13:44:54.537Z,4.60
2018-11-28T13:47:25.740Z,4.70
2018-11-28T13:49:57.636Z,4.53
2018-11-28T13:52:32.366Z,5.47
2018-11-28T13:55:37.499Z,4.43
2018-11-28T13:57:33.641Z,5.00
2018-11-28T14:00:05.280Z,4.23
2018-11-28T14:02:36.204Z,4.67
2018-11-28T14:05:11.739Z,4.53
2018-11-28T14:07:43.296Z,4.67
2018-11-28T14:10:16.042Z,4.23
2018-11-28T14:12:47.432Z,4.97
2018-11-28T14:15:22.049Z,4.87
2018-11-28T14:18:00.374Z,5.50
2018-11-28T14:20:31.364Z,4.97
2018-11-28T14:23:13.295Z,5.23
2018-11-28T14:25:44.640Z,5.43
2018-11-28T14:28:16.109Z,6.07
2018-11-28T14:30:47.843Z,6.50
2018-11-28T14:33:18.962Z,5.90
2018-11-28T14:35:49.932Z,6.33
2018-11-28T14:38:20.752Z,5.77
2018-11-28T14:40:52.114Z,5.77
2018-11-28T14:43:23.059Z,6.00
2018-11-28T14:45:54.385Z,5.23
2018-11-28T14:48:26.973Z,6.00
2018-11-28T14:50:58.184Z,5.83
2018-11-28T14:53:28.967Z,4.97
2018-11-28T14:56:00.668Z,5.80
2018-11-28T14:58:32.250Z,5.17
2018-11-28T15:01:03.565Z,6.07
2018-11-28T15:03:34.345Z,5.63
2018-11-28T15:06:24.438Z,5.67
2018-11-28T15:09:00.724Z,5.40
2018-11-28T15:11:32.333Z,5.53
2018-11-28T15:14:03.432Z,5.70
2018-11-28T15:16:34.402Z,6.00
2018-11-28T15:19:06.294Z,6.27
2018-11-28T15:21:36.732Z,6.83
2018-11-28T15:24:08.583Z,5.40
2018-11-28T15:26:39.578Z,5.60
2018-11-28T15:29:10.727Z,5.07
2018-11-28T15:31:42.858Z,4.97
2018-11-28T15:34:13.980Z,7.40
2018-11-28T15:36:44.875Z,6.00
2018-11-28T15:39:15.732Z,6.17
2018-11-28T15:51:10.530Z,6.47
2018-11-28T15:53:45.991Z,6.77
2018-11-28T15:56:17.442Z,7.30
2018-11-28T15:58:52.721Z,7.30
2018-11-28T16:01:23.575Z,7.17
2018-11-28T16:03:57.491Z,7.23
2018-11-28T16:06:28.184Z,7.53
2018-11-28T16:08:59.175Z,7.70
2018-11-28T16:11:30.557Z,7.90
2018-11-28T16:14:11.239Z,8.50
2018-11-28T16:16:42.055Z,8.73
2018-11-28T16:19:13.392Z,6.73
2018-11-28T16:21:44.404Z,8.30
2018-11-28T16:24:15.351Z,7.47
2018-11-28T16:26:47.909Z,7.83
2018-11-28T16:29:19.411Z,8.27
2018-11-28T16:31:52.043Z,7.67
2018-11-28T16:34:22.744Z,8.00
2018-11-28T16:36:58.350Z,8.20
2018-11-28T16:39:29.255Z,7.00
2018-11-28T16:42:00.581Z,7.83
2018-11-28T16:44:32.070Z,7.63
2018-11-28T16:47:03.878Z,7.33
2018-11-28T16:49:34.802Z,8.67
2018-11-28T16:52:06.158Z,9.57
2018-11-28T16:54:37.776Z,8.00
2018-11-28T16:57:08.668Z,10.23
2018-11-28T16:59:39.897Z,9.33
2018-11-28T17:02:10.847Z,10.90
2018-11-28T17:04:43.404Z,10.57
2018-11-28T17:07:14.518Z,10.73
2018-11-28T17:09:45.416Z,10.10
2018-11-28T17:12:16.714Z,9.43
2018-11-28T17:14:47.323Z,9.70
2018-11-28T17:17:18.196Z,9.77
2018-11-28T17:19:49.113Z,8.97
2018-11-28T17:22:20.730Z,8.67
2018-11-28T17:24:52.503Z,9.70
2018-11-28T17:27:25.644Z,8.60
2018-11-28T17:29:56.464Z,9.23
2018-11-28T17:32:27.428Z,8.80
2018-11-28T17:34:58.940Z,9.67
2018-11-28T17:37:29.800Z,8.87
2018-11-28T17:40:00.456Z,8.73
2018-11-28T17:42:31.207Z,11.33
2018-11-28T17:45:02.974Z,9.57
2018-11-28T17:47:35.069Z,8.37
2018-11-28T17:50:16.563Z,8.83
2018-11-28T17:53:08.555Z,9.60
2018-11-28T17:55:59.987Z,8.97
2018-11-28T17:58:32.850Z,8.70
2018-11-28T18:01:03.828Z,9.60
2018-11-28T18:03:35.951Z,9.37
2018-11-28T18:06:07.100Z,9.57
2018-11-28T18:08:38.192Z,9.53
2018-11-28T18:11:13.922Z,8.33
2018-11-28T18:13:45.705Z,8.30
2018-11-28T18:16:29.374Z,9.57
2018-11-28T18:19:05.070Z,8.70
2018-11-28T18:21:36.020Z,8.20
2018-11-28T18:24:08.016Z,7.90
2018-11-28T18:26:39.036Z,8.43
2018-11-28T18:29:10.071Z,8.10
2018-11-28T18:31:41.117Z,8.60
2018-11-28T18:34:15.628Z,9.10
2018-11-28T18:36:46.679Z,7.77
2018-11-28T18:39:17.347Z,8.73
2018-11-28T18:41:57.819Z,9.40
2018-11-28T18:44:28.653Z,9.20
2018-11-28T18:46:59.587Z,8.77
2018-11-28T18:49:31.724Z,8.03
2018-11-28T18:52:03.983Z,8.57
2018-11-28T18:54:34.923Z,8.30
2018-11-28T18:57:06.378Z,9.70
2018-11-28T18:59:37.357Z,10.10
2018-11-28T19:02:08.325Z,7.93
2018-11-28T19:04:40.124Z,9.00
2018-11-28T19:07:12.136Z,10.07
2018-11-28T19:09:51.625Z,8.40
2018-11-28T19:12:22.323Z,8.90
2018-11-28T19:14:54.175Z,8.33
2018-11-28T19:17:27.190Z,9.93
2018-11-28T19:19:58.415Z,9.63
2018-11-28T19:22:29.672Z,9.93
2018-11-28T19:25:00.521Z,9.40
2018-11-28T19:27:33.538Z,9.37
2018-11-28T19:30:11.607Z,9.77
2018-11-28T19:32:42.640Z,9.23
2018-11-28T19:35:14.981Z,9.33
2018-11-28T19:37:46.815Z,8.93
2018-11-28T19:40:29.944Z,8.87
2018-11-28T19:43:00.979Z,9.90
2018-11-28T19:45:35.929Z,9.27
2018-11-28T19:48:08.394Z,8.97
2018-11-28T19:50:41.447Z,8.40
2018-11-28T19:53:14.157Z,8.73
2018-11-28T19:55:46.376Z,8.73
2018-11-28T19:58:18.299Z,9.13
2018-11-28T20:00:49.489Z,9.67
2018-11-28T20:03:21.320Z,9.10
2018-11-28T20:05:54.419Z,9.70
2018-11-28T20:08:26.194Z,9.00
2018-11-28T20:10:59.020Z,9.03
2018-11-28T20:13:30.271Z,9.63
2018-11-28T20:16:01.747Z,8.80
2018-11-28T20:18:32.518Z,9.10
2018-11-28T20:21:03.822Z,8.67
2018-11-28T20:23:34.817Z,8.60
2018-11-28T20:26:05.968Z,8.93
2018-11-28T20:28:37.348Z,9.13
2018-11-28T20:31:08.690Z,9.03
2018-11-28T20:33:39.520Z,8.77
2018-11-28T20:36:10.390Z,8.37
2018-11-28T20:38:41.083Z,8.97
2018-11-28T20:41:12.038Z,9.43
2018-11-28T20:43:43.099Z,8.53
2018-11-28T20:46:16.220Z,9.23
2018-11-28T20:48:49.181Z,8.97
2018-11-28T20:51:20.008Z,8.10
2018-11-28T20:53:52.014Z,9.17
2018-11-28T20:56:23.114Z,8.47
2018-11-28T20:58:57.797Z,8.67
2018-11-28T21:01:28.894Z,8.30
2018-11-28T21:03:59.816Z,9.80
2018-11-28T21:06:30.655Z,9.93
2018-11-28T21:09:02.513Z,8.97
2018-11-28T21:11:33.343Z,10.33
2018-11-28T21:14:05.577Z,10.03
2018-11-28T21:16:38.621Z,9.93
2018-11-28T21:19:09.568Z,9.60
2018-11-28T21:21:41.214Z,9.20
2018-11-28T21:24:14.456Z,9.10
2018-11-28T21:26:48.589Z,8.63
2018-11-28T21:29:20.028Z,8.47
2018-11-28T21:31:51.416Z,9.23
2018-11-28T21:34:24.844Z,8.37
2018-11-28T21:36:55.732Z,8.53
2018-11-28T21:39:27.586Z,8.77
2018-11-28T21:42:00.290Z,8.13
2018-11-28T21:44:31.106Z,8.73
2018-11-28T21:47:04.499Z,8.60
2018-11-28T21:49:38.795Z,9.37
2018-11-28T21:52:38.894Z,8.43
2018-11-28T21:55:13.046Z,10.80
2018-11-28T21:57:44.680Z,9.23
2018-11-28T22:00:26.822Z,8.20
2018-11-28T22:02:59.388Z,7.93
2018-11-28T22:05:30.737Z,9.17
2018-11-28T22:08:02.556Z,10.60
2018-11-28T22:10:34.713Z,10.03
2018-11-28T22:13:06.080Z,8.87
2018-11-28T22:15:38.731Z,9.30
2018-11-28T22:18:09.627Z,10.20
2018-11-28T22:20:43.127Z,12.03
2018-11-28T22:23:15.955Z,10.17
2018-11-28T22:25:49.246Z,10.50
2018-11-28T22:28:20.415Z,12.13
2018-11-28T22:30:51.322Z,9.63
2018-11-28T22:33:23.570Z,8.83
2018-11-28T22:35:58.372Z,8.87
2018-11-28T22:38:29.375Z,9.17
2018-11-28T22:41:00.482Z,8.53
2018-11-28T22:43:35.387Z,9.23
2018-11-28T22:46:09.334Z,9.20
2018-11-28T22:48:41.033Z,8.20
2018-11-28T22:51:11.667Z,10.50
2018-11-28T22:53:42.626Z,9.10
2018-11-28T22:56:14.809Z,9.73
2018-11-28T22:58:46.270Z,10.33
2018-11-28T23:01:23.188Z,9.40
2018-11-28T23:03:54.228Z,9.20
2018-11-28T23:06:28.664Z,9.17
2018-11-28T23:09:00.173Z,9.53
2018-11-28T23:11:32.362Z,9.17
2018-11-28T23:14:04.480Z,9.00
2018-11-28T23:16:35.530Z,8.30
2018-11-28T23:19:08.276Z,9.27
2018-11-28T23:21:40.550Z,8.60
2018-11-28T23:24:11.424Z,9.67
2018-11-28T23:26:42.960Z,9.97
2018-11-28T23:29:14.027Z,9.53
2018-11-28T23:31:44.613Z,9.90
2018-11-28T23:34:15.822Z,10.73
2018-11-28T23:36:47.405Z,9.47
2018-11-28T23:39:18.105Z,9.57
2018-11-28T23:41:50.143Z,8.17
2018-11-28T23:44:20.961Z,9.88
2018-11-28T23:46:52.528Z,8.73
2018-11-28T23:49:24.949Z,9.83
2018-11-28T23:51:55.890Z,9.87
2018-11-28T23:54:26.783Z,10.30
2018-11-28T23:56:57.808Z,9.23
2018-11-28T23:59:28.920Z,11.23
